Time;durP1;ratioP1;P1;durP2;ratioP2;P2;SDS_P1;SDS_P2;PMS_P1;PMS_P2;Temp;Humidity;BMP_temperature;BMP_pressure;BME280_temperature;BME280_humidity;BME280_pressure;Samples;Min_cycle;Max_cycle;Signal;HPM_P1;HPM_P2
2023/07/05 00:01:37;;;;;;;15.15;6.80;;;;;;;-146.27;92.67;82100.97;5069963;28;20062;-68
2023/07/05 00:04:02;;;;;;;10.88;7.03;;;;;;;-146.27;93.08;82106.97;5070362;28;20099;-69
2023/07/05 00:06:27;;;;;;;14.90;7.30;;;;;;;-146.27;93.52;82115.00;5071470;28;20028;-69
2023/07/05 00:08:53;;;;;;;15.48;7.30;;;;;;;-146.27;93.41;82086.91;5071446;28;20028;-69
2023/07/05 00:11:19;;;;;;;12.48;7.55;;;;;;;-146.27;94.11;82072.84;5064474;28;20053;-68
2023/07/05 00:13:45;;;;;;;14.43;7.43;;;;;;;-146.27;93.46;82080.88;5054402;28;20115;-69
2023/07/05 00:16:10;;;;;;;17.30;7.50;;;;;;;-146.27;94.32;82131.09;5064462;28;20108;-69
2023/07/05 00:18:37;;;;;;;15.95;8.30;;;;;;;-146.27;95.01;82104.97;5087082;28;20027;-68
2023/07/05 00:21:04;;;;;;;13.52;7.50;;;;;;;-146.27;95.42;82141.13;5069486;28;20385;-69
2023/07/05 00:23:32;;;;;;;16.90;7.63;;;;;;;-146.27;95.69;82119.03;5063737;28;20562;-68
2023/07/05 00:25:57;;;;;;;14.90;6.93;;;;;;;-146.27;95.61;82149.16;5080874;28;20376;-69
2023/07/05 00:28:23;;;;;;;14.50;7.35;;;;;;;-146.27;96.26;82151.16;5070803;28;20028;-69
2023/07/05 00:30:49;;;;;;;15.27;7.43;;;;;;;-146.27;96.41;82135.09;5073440;28;20534;-69
2023/07/05 00:33:14;;;;;;;15.90;8.77;;;;;;;-146.27;97.37;82173.28;5060846;28;20025;-69
2023/07/05 00:35:53;;;;;;;15.32;8.05;;;;;;;-146.27;97.35;82143.13;5077304;28;20062;-69
2023/07/05 00:38:20;;;;;;;14.82;8.27;;;;;;;-146.27;98.08;82161.22;5068108;28;20392;-69
2023/07/05 00:40:46;;;;;;;20.58;7.97;;;;;;;-146.27;97.86;82179.28;5068185;28;20027;-69
2023/07/05 00:43:13;;;;;;;17.77;8.52;;;;;;;-146.27;98.23;82211.44;5073217;28;20036;-69
2023/07/05 00:46:18;;;;;;;15.27;8.80;;;;;;;-146.27;98.39;82219.47;5070623;28;20055;-69
2023/07/05 00:48:59;;;;;;;14.07;7.65;;;;;;;-146.27;98.87;82169.25;5067757;28;20373;-69
2023/07/05 00:51:43;;;;;;;11.27;7.25;;;;;;;-146.27;98.45;82173.28;5067435;28;20076;-69
2023/07/05 00:54:10;;;;;;;;;;;;;;;-146.27;98.79;82193.34;5069048;28;20313;-69
2023/07/05 00:56:45;;;;;;;16.27;7.80;;;;;;;-146.27;100.00;82183.31;5052305;28;19913;-69
2023/07/05 00:59:13;;;;;;;13.55;6.95;;;;;;;-146.27;100.00;82235.53;5063968;28;20028;-69
2023/07/05 01:01:39;;;;;;;17.77;6.70;;;;;;;-146.27;100.00;82251.59;5079631;28;20099;-69
2023/07/05 01:04:05;;;;;;;13.63;7.05;;;;;;;-146.27;100.00;82189.34;5067451;28;20031;-68
2023/07/05 01:06:30;;;;;;;9.45;6.40;;;;;;;-146.27;100.00;82231.53;5072017;28;20106;-69
2023/07/05 01:08:56;;;;;;;15.38;6.97;;;;;;;-146.27;100.00;82195.38;5063351;28;20028;-69
2023/07/05 01:11:51;;;;;;;13.38;7.55;;;;;;;-146.27;100.00;82257.63;5062297;28;20493;-69
2023/07/05 01:14:40;;;;;;;10.73;6.55;;;;;;;-146.27;100.00;82281.75;5051058;28;20047;-69
2023/07/05 01:17:26;;;;;;;9.32;4.03;;;;;;;-146.27;100.00;82251.59;5053419;28;20039;-70
2023/07/05 01:19:57;;;;;;;7.97;3.05;;;;;;;-146.27;100.00;82321.91;5054055;28;20042;-69
2023/07/05 01:22:35;;;;;;;7.55;2.78;;;;;;;-146.27;100.00;82344.00;5058246;28;20036;-69
2023/07/05 01:25:17;;;;;;;3.58;2.30;;;;;;;-146.27;100.00;82356.06;5059235;28;20090;-69
2023/07/05 01:27:45;;;;;;;3.50;2.00;;;;;;;-146.27;100.00;82362.09;5061693;28;20038;-70
2023/07/05 01:30:32;;;;;;;5.93;2.22;;;;;;;-146.27;100.00;82380.16;5067049;28;20028;-68
2023/07/05 01:33:03;;;;;;;5.65;2.13;;;;;;;-146.27;100.00;82358.06;5057020;28;20032;-69
2023/07/05 01:35:37;;;;;;;7.55;2.08;;;;;;;-146.27;99.86;82430.38;5050285;28;20036;-70
2023/07/05 01:38:05;;;;;;;6.47;1.70;;;;;;;-146.27;97.60;82464.53;5050379;28;20532;-69
2023/07/05 01:40:30;;;;;;;7.80;2.22;;;;;;;-146.27;97.65;82434.41;5055806;28;20024;-69
2023/07/05 01:43:03;;;;;;;8.60;2.42;;;;;;;-146.27;97.35;82440.44;5056139;28;20025;-69
2023/07/05 01:45:39;;;;;;;6.78;1.83;;;;;;;-146.27;97.40;82440.44;5065522;28;20372;-69
2023/07/05 01:48:42;;;;;;;10.57;3.97;;;;;;;-146.27;96.58;82434.41;5074333;28;20481;-69
2023/07/05 01:51:07;;;;;;;7.88;1.95;;;;;;;-146.27;95.97;82498.69;5052125;28;20029;-68
2023/07/05 01:53:40;;;;;;;6.93;1.85;;;;;;;-146.27;95.39;82460.53;5056886;28;20596;-69
2023/07/05 01:56:14;;;;;;;8.07;1.98;;;;;;;-146.27;95.93;82400.25;5078979;28;20027;-68
2023/07/05 01:58:47;;;;;;;7.30;1.92;;;;;;;-146.27;95.14;82536.84;5056576;28;20395;-68
2023/07/05 02:01:15;;;;;;;11.93;2.10;;;;;;;-146.27;94.96;82488.66;5073586;28;20077;-69
2023/07/05 02:03:41;;;;;;;5.60;2.00;;;;;;;-146.27;94.84;82498.69;5067021;28;20024;-69
2023/07/05 02:06:09;;;;;;;9.25;2.65;;;;;;;-146.27;94.00;82494.66;5056883;28;20381;-69
2023/07/05 02:08:36;;;;;;;7.25;2.22;;;;;;;-146.27;94.12;82444.44;5070732;28;20381;-69
2023/07/05 02:11:02;;;;;;;7.57;1.88;;;;;;;-146.27;94.05;82448.47;5070304;28;20197;-69
2023/07/05 02:13:28;;;;;;;12.07;2.28;;;;;;;-146.27;94.94;82466.56;5053999;28;20116;-69
2023/07/05 02:15:53;;;;;;;12.10;3.00;;;;;;;-146.27;95.72;82456.50;5057697;28;20047;-69
2023/07/05 02:18:19;;;;;;;7.13;2.20;;;;;;;-146.27;95.81;82500.69;5062295;28;20405;-69
2023/07/05 02:20:44;;;;;;;9.40;2.10;;;;;;;-146.27;95.79;82512.75;5077274;28;20431;-69
2023/07/05 02:23:10;;;;;;;6.95;2.40;;;;;;;-146.27;95.79;82520.78;5068393;28;20695;-70
2023/07/05 02:25:36;;;;;;;9.73;2.55;;;;;;;-146.27;96.12;82492.66;5069444;28;20020;-69
2023/07/05 02:28:06;;;;;;;11.30;2.97;;;;;;;-146.27;96.92;82498.69;5070372;28;20021;-69
2023/07/05 02:30:35;;;;;;;5.25;2.45;;;;;;;-146.27;97.87;82581.06;5069246;28;20052;-68
2023/07/05 02:33:00;;;;;;;6.78;3.28;;;;;;;-146.27;97.13;82597.13;5081341;28;20024;-69
2023/07/05 02:35:25;;;;;;;6.47;3.47;;;;;;;-146.27;96.28;82601.16;5073858;28;20078;-69
2023/07/05 02:37:51;;;;;;;9.80;3.17;;;;;;;-146.27;96.11;82569.00;5054052;28;20436;-69
2023/07/05 02:40:16;;;;;;;8.45;3.90;;;;;;;-146.27;95.88;82593.09;5065855;28;20029;-69
2023/07/05 02:42:41;;;;;;;9.27;3.92;;;;;;;-146.27;95.39;82577.03;5069112;28;20028;-69
2023/07/05 02:45:07;;;;;;;7.47;3.50;;;;;;;-146.27;95.37;82617.22;5056229;28;20111;-69
2023/07/05 02:47:32;;;;;;;8.23;3.92;;;;;;;-146.27;95.09;82663.41;5054405;28;20517;-69
2023/07/05 02:49:58;;;;;;;9.20;3.33;;;;;;;-146.27;94.31;82605.16;5066557;28;20070;-69
2023/07/05 02:52:23;;;;;;;6.93;2.90;;;;;;;-146.27;94.51;82683.50;5087027;28;20115;-69
2023/07/05 02:54:48;;;;;;;6.90;3.08;;;;;;;-146.27;94.36;82637.31;5059896;28;20024;-69
2023/07/05 02:57:14;;;;;;;11.13;3.20;;;;;;;-146.27;94.20;82649.34;5053870;28;20490;-69
2023/07/05 02:59:39;;;;;;;5.78;2.53;;;;;;;-146.27;94.86;82643.31;5068116;28;20052;-69
2023/07/05 03:02:05;;;;;;;5.95;2.88;;;;;;;-146.27;95.26;82601.16;5059240;28;20036;-69
2023/07/05 03:04:30;;;;;;;6.93;2.88;;;;;;;-146.27;95.80;82677.47;5083978;28;20052;-69
2023/07/05 03:06:56;;;;;;;7.07;2.95;;;;;;;-146.27;96.46;82657.41;5093742;28;20078;-69
2023/07/05 03:09:21;;;;;;;6.43;3.05;;;;;;;-146.27;97.95;82703.59;5074689;28;20035;-69
2023/07/05 03:11:47;;;;;;;4.85;3.15;;;;;;;-146.27;98.98;82693.56;5068038;28;20020;-69
2023/07/05 03:14:13;;;;;;;6.18;3.47;;;;;;;-146.27;99.70;82731.72;5074288;28;20033;-69
2023/07/05 03:16:38;;;;;;;8.25;3.50;;;;;;;-146.27;99.81;82703.59;5071695;28;20059;-70
2023/07/05 03:19:03;;;;;;;7.35;3.45;;;;;;;-146.27;99.89;82679.50;5072100;28;20028;-68
2023/07/05 03:21:29;;;;;;;6.85;3.58;;;;;;;-146.27;100.00;82777.94;5057847;28;20028;-69
2023/07/05 03:23:54;;;;;;;8.27;3.65;;;;;;;-146.27;100.00;82713.66;5068773;28;20103;-70
2023/07/05 03:26:19;;;;;;;8.88;4.18;;;;;;;-146.27;100.00;82745.78;5060570;28;20035;-68
2023/07/05 03:28:45;;;;;;;11.13;3.88;;;;;;;-146.27;100.00;82747.78;5055753;28;20036;-69
2023/07/05 03:31:13;;;;;;;9.10;3.60;;;;;;;-146.27;100.00;82749.81;5051086;28;20027;-67
2023/07/05 03:33:39;;;;;;;8.63;3.38;;;;;;;-146.27;100.00;82800.03;5064024;28;20120;-68
2023/07/05 03:36:19;;;;;;;8.13;3.97;;;;;;;-146.27;100.00;82836.19;5078782;28;20103;-69
2023/07/05 03:38:44;;;;;;;8.73;3.60;;;;;;;-146.27;100.00;82812.09;5092607;28;20031;-70
2023/07/05 03:41:16;;;;;;;5.85;3.83;;;;;;;-146.27;100.00;82838.19;5069541;28;20107;-69
2023/07/05 03:43:43;;;;;;;7.13;3.47;;;;;;;-146.27;100.00;82826.16;5071250;28;20032;-70
2023/07/05 03:46:14;;;;;;;6.43;3.13;;;;;;;-146.27;100.00;82828.16;5082210;28;20051;-70
2023/07/05 03:48:42;;;;;;;8.48;3.53;;;;;;;-146.27;100.00;82834.19;5092071;28;20028;-69
2023/07/05 03:51:10;;;;;;;9.82;4.35;;;;;;;-146.27;100.00;82838.19;5089518;28;20031;-69
2023/07/05 03:53:36;;;;;;;10.55;3.45;;;;;;;-146.27;100.00;82878.38;5090688;28;20451;-69
2023/07/05 03:56:04;;;;;;;9.75;3.22;;;;;;;-146.27;100.00;82836.19;5077591;28;20021;-69
2023/07/05 03:58:30;;;;;;;6.50;2.88;;;;;;;-146.27;100.00;82832.19;5055589;28;20037;-69
2023/07/05 04:01:07;;;;;;;9.73;3.20;;;;;;;-146.27;100.00;82814.09;5070138;28;20024;-69
2023/07/05 04:03:33;;;;;;;4.05;2.45;;;;;;;-146.27;100.00;82830.16;5054108;28;20066;-69
2023/07/05 04:05:58;;;;;;;8.20;2.60;;;;;;;-146.27;100.00;82826.16;5068593;28;20482;-69
2023/07/05 04:08:23;;;;;;;10.35;3.10;;;;;;;-146.27;100.00;82846.25;5058978;28;20020;-69
2023/07/05 04:10:49;;;;;;;4.80;2.22;;;;;;;-146.27;100.00;82838.19;5069398;28;20467;-69
2023/07/05 04:13:15;;;;;;;14.38;2.90;;;;;;;-146.27;100.00;82862.31;5056521;28;20040;-69
2023/07/05 04:15:40;;;;;;;7.15;2.17;;;;;;;-146.27;100.00;82910.53;5066269;28;20465;-69
2023/07/05 04:18:06;;;;;;;6.47;2.00;;;;;;;-146.27;100.00;82886.41;5066518;28;20463;-68
2023/07/05 04:20:31;;;;;;;5.82;2.15;;;;;;;-146.27;100.00;82834.19;5066052;28;20043;-68
2023/07/05 04:22:59;;;;;;;11.15;1.60;;;;;;;-146.27;100.00;82906.50;5050644;28;20059;-68
2023/07/05 04:25:25;;;;;;;12.10;1.67;;;;;;;-146.27;100.00;82914.53;5062676;28;20021;-68
2023/07/05 04:27:50;;;;;;;6.20;1.63;;;;;;;-146.27;100.00;82926.59;5068910;28;20027;-68
2023/07/05 04:30:15;;;;;;;14.82;1.70;;;;;;;-146.27;100.00;82924.59;5063778;28;20493;-68
2023/07/05 04:32:41;;;;;;;9.07;1.70;;;;;;;-146.27;100.00;82922.59;5053330;28;20237;-68
2023/07/05 04:35:07;;;;;;;9.57;1.65;;;;;;;-146.27;100.00;82858.28;5078619;28;20036;-68
2023/07/05 04:37:32;;;;;;;11.43;1.85;;;;;;;-146.27;100.00;82866.31;5068364;28;20445;-69
2023/07/05 04:39:57;;;;;;;15.98;2.05;;;;;;;-146.27;100.00;82876.38;5054461;28;20025;-69
2023/07/05 04:42:23;;;;;;;9.80;1.60;;;;;;;-146.27;100.00;82942.66;5066413;28;20130;-71
2023/07/05 04:44:48;;;;;;;10.90;1.92;;;;;;;-146.27;100.00;82886.41;5060970;28;20045;-69
2023/07/05 04:47:13;;;;;;;22.30;3.28;;;;;;;-146.27;100.00;82886.41;5082231;28;20062;-69
2023/07/05 04:49:39;;;;;;;16.40;2.45;;;;;;;-146.27;100.00;82926.59;5067753;28;20471;-68
2023/07/05 04:52:05;;;;;;;7.57;1.83;;;;;;;-146.27;100.00;83031.06;5082227;28;20422;-71
2023/07/05 04:54:30;;;;;;;12.73;2.45;;;;;;;-146.27;100.00;82966.78;5091002;28;20400;-70
2023/07/05 04:56:55;;;;;;;8.85;2.20;;;;;;;-146.27;100.00;82944.69;5065115;28;20024;-69
2023/07/05 04:59:21;;;;;;;14.82;2.63;;;;;;;-146.27;100.00;82938.66;5060963;28;20089;-69
2023/07/05 05:01:47;;;;;;;10.23;2.70;;;;;;;-146.27;100.00;82958.75;5086367;28;20111;-69
2023/07/05 05:04:13;;;;;;;15.18;3.95;;;;;;;-146.27;100.00;82978.84;5068003;28;20024;-69
2023/07/05 05:06:38;;;;;;;12.27;2.75;;;;;;;-146.27;99.20;82942.66;5070034;28;20433;-68
2023/07/05 05:09:03;;;;;;;15.13;3.17;;;;;;;-146.27;98.88;82996.91;5053151;28;20020;-69
2023/07/05 05:11:29;;;;;;;12.32;2.60;;;;;;;-146.27;98.16;82982.84;5057129;28;20102;-68
2023/07/05 05:13:57;;;;;;;3.90;2.20;;;;;;;-146.27;97.95;82990.88;5067407;28;20039;-71
2023/07/05 05:16:22;;;;;;;13.30;2.40;;;;;;;-146.27;97.56;82990.88;5070359;28;20051;-69
2023/07/05 05:18:48;;;;;;;17.08;2.65;;;;;;;-146.27;97.99;82994.91;5081668;28;20672;-69
2023/07/05 05:21:13;;;;;;;9.05;2.05;;;;;;;-146.27;97.87;83029.06;5075579;28;20040;-70
2023/07/05 05:23:39;;;;;;;6.78;1.55;;;;;;;-146.27;98.42;83055.19;5056110;28;20023;-68
2023/07/05 05:26:04;;;;;;;7.10;1.92;;;;;;;-146.27;98.88;83075.28;5069248;28;20445;-69
2023/07/05 05:28:30;;;;;;;11.80;1.90;;;;;;;-146.27;98.47;83131.53;5067508;28;20031;-69
2023/07/05 05:31:08;;;;;;;8.60;2.70;;;;;;;-146.27;98.44;83075.28;5059956;28;20085;-71
2023/07/05 05:33:34;;;;;;;11.93;2.78;;;;;;;-146.27;99.16;83117.47;5049979;28;20078;-70
2023/07/05 05:36:00;;;;;;;10.15;2.10;;;;;;;-146.27;99.71;83135.53;5053073;28;20388;-70
2023/07/05 05:38:26;;;;;;;16.98;4.03;;;;;;;-146.27;100.00;83179.75;5049600;28;20032;-69
2023/07/05 05:40:52;;;;;;;16.42;2.80;;;;;;;-146.27;100.00;83167.69;5050141;28;20469;-70
2023/07/05 05:43:18;;;;;;;16.88;3.03;;;;;;;-146.27;100.00;83199.84;5056004;28;20074;-69
2023/07/05 05:45:44;;;;;;;11.13;2.40;;;;;;;-146.27;100.00;83236.00;5052391;28;20388;-71
2023/07/05 05:48:09;;;;;;;12.60;2.08;;;;;;;-146.27;100.00;83264.13;5056847;28;20025;-70
2023/07/05 05:50:35;;;;;;;27.35;2.33;;;;;;;-146.27;100.00;83276.19;5065476;28;20051;-69
2023/07/05 05:53:01;;;;;;;11.20;1.90;;;;;;;-146.27;100.00;83332.44;5066443;28;20024;-71
2023/07/05 05:55:26;;;;;;;9.40;1.65;;;;;;;-146.27;100.00;83298.28;5059006;28;20147;-70
2023/07/05 05:57:52;;;;;;;4.63;1.83;;;;;;;-146.27;100.00;83302.31;5052944;28;20052;-69
2023/07/05 06:00:17;;;;;;;14.18;2.55;;;;;;;-146.27;100.00;83360.59;5063687;28;20603;-69
2023/07/05 06:02:43;;;;;;;10.65;1.70;;;;;;;-146.27;100.00;83358.56;5066119;28;20040;-70
2023/07/05 06:05:09;;;;;;;7.55;1.63;;;;;;;-146.27;100.00;83416.84;5050110;28;20021;-70
2023/07/05 06:07:35;;;;;;;8.75;1.35;;;;;;;-146.27;100.00;83390.72;5064390;28;20387;-70
2023/07/05 06:10:00;;;;;;;14.18;2.10;;;;;;;-146.27;100.00;83390.72;5061905;28;20052;-70
2023/07/05 06:12:26;;;;;;;8.48;1.35;;;;;;;-146.27;100.00;83404.78;5050764;28;20052;-70
2023/07/05 06:14:51;;;;;;;11.88;3.15;;;;;;;-146.27;100.00;83344.50;5060101;28;20066;-69
2023/07/05 06:17:17;;;;;;;19.63;2.90;;;;;;;-146.27;100.00;83344.50;5066926;28;20403;-70
2023/07/05 06:19:42;;;;;;;19.75;2.70;;;;;;;-146.27;100.00;83280.22;5064271;28;20028;-69
2023/07/05 06:22:08;;;;;;;25.17;3.35;;;;;;;-146.27;100.00;83300.31;5069252;28;20554;-69
2023/07/05 06:24:33;;;;;;;21.00;4.40;;;;;;;-146.27;100.00;83292.28;5068451;28;20306;-69
2023/07/05 06:26:59;;;;;;;27.25;3.28;;;;;;;-146.27;100.00;83272.19;5055025;28;20020;-69
2023/07/05 06:29:25;;;;;;;21.67;3.45;;;;;;;-146.27;100.00;83266.16;5064661;28;20107;-69
2023/07/05 06:31:50;;;;;;;20.85;3.88;;;;;;;-146.27;100.00;83252.09;5057009;28;20143;-69
2023/07/05 06:34:15;;;;;;;19.60;4.32;;;;;;;-146.27;100.00;83232.00;5072108;28;20025;-69
2023/07/05 06:36:41;;;;;;;26.27;4.25;;;;;;;-146.27;100.00;83234.00;5064753;28;20020;-69
2023/07/05 06:39:07;;;;;;;22.48;3.95;;;;;;;-146.27;100.00;83225.97;5058609;28;20037;-69
2023/07/05 06:41:32;;;;;;;16.15;2.97;;;;;;;-146.27;100.00;83244.03;5073875;28;20028;-70
2023/07/05 06:43:57;;;;;;;21.67;4.05;;;;;;;-146.27;100.00;83256.09;5063503;28;20119;-70
2023/07/05 06:46:23;;;;;;;23.05;3.63;;;;;;;-146.27;100.00;83215.91;5060201;28;20142;-69
2023/07/05 06:48:50;;;;;;;21.67;4.07;;;;;;;-146.27;100.00;83207.88;5069610;28;20481;-69
2023/07/05 06:51:16;;;;;;;24.02;5.30;;;;;;;-146.27;100.00;83238.03;5074307;28;20053;-69
2023/07/05 06:53:41;;;;;;;24.00;4.05;;;;;;;-146.27;100.00;83252.09;5074088;28;20028;-69
2023/07/05 06:56:09;;;;;;;20.45;4.20;;;;;;;-146.27;100.00;83256.09;5064212;28;20135;-69
2023/07/05 06:58:35;;;;;;;18.92;5.22;;;;;;;-146.27;100.00;83236.00;5071111;28;20032;-68
2023/07/05 07:01:00;;;;;;;16.35;3.53;;;;;;;-146.27;100.00;83284.22;5076626;28;20104;-70
2023/07/05 07:03:26;;;;;;;11.50;2.85;;;;;;;-146.27;100.00;83244.03;5068284;28;20103;-68
2023/07/05 07:05:53;;;;;;;19.70;3.80;;;;;;;-146.27;100.00;83280.22;5081535;28;20040;-68
2023/07/05 07:08:20;;;;;;;19.92;5.03;;;;;;;-146.27;100.00;83252.09;5070149;28;20364;-67
2023/07/05 07:10:46;;;;;;;11.75;3.13;;;;;;;-146.27;100.00;83232.00;5070972;28;20041;-67
2023/07/05 07:13:13;;;;;;;21.42;3.80;;;;;;;-146.27;100.00;83225.97;5071233;28;20032;-70
2023/07/05 07:15:39;;;;;;;12.90;4.22;;;;;;;-146.27;100.00;83240.03;5072290;28;20031;-68
2023/07/05 07:18:04;;;;;;;18.38;3.28;;;;;;;-146.27;100.00;83232.00;5070872;28;20320;-68
2023/07/05 07:20:29;;;;;;;20.55;3.72;;;;;;;-146.27;100.00;83268.16;5068358;28;20019;-68
2023/07/05 07:22:55;;;;;;;21.45;3.53;;;;;;;-146.27;100.00;83187.78;5066186;28;20052;-68
2023/07/05 07:25:20;;;;;;;12.85;3.17;;;;;;;-146.27;100.00;83244.03;5069549;28;20037;-69
2023/07/05 07:27:45;;;;;;;20.13;3.97;;;;;;;-146.27;100.00;83213.91;5072404;28;20031;-68
2023/07/05 07:30:11;;;;;;;11.85;3.47;;;;;;;-146.27;100.00;83195.81;5071476;28;20028;-68
2023/07/05 07:32:36;;;;;;;12.35;3.55;;;;;;;-146.27;100.00;83242.03;5077902;28;20020;-68
2023/07/05 07:35:02;;;;;;;18.05;4.00;;;;;;;-146.27;100.00;83229.97;5073387;28;20111;-68
2023/07/05 07:37:31;;;;;;;15.07;3.42;;;;;;;-146.27;100.00;83211.91;5072452;28;20031;-69
2023/07/05 07:39:57;;;;;;;11.10;2.53;;;;;;;-146.27;100.00;83252.09;5067841;28;20075;-70
2023/07/05 07:42:22;;;;;;;10.60;3.03;;;;;;;-146.27;100.00;83167.69;5074777;28;20119;-68
2023/07/05 07:44:47;;;;;;;7.15;2.42;;;;;;;-146.27;100.00;83268.16;5066996;28;20052;-68
2023/07/05 07:47:13;;;;;;;8.77;3.60;;;;;;;-146.27;100.00;83240.03;5089651;28;20674;-69
2023/07/05 07:49:38;;;;;;;8.18;3.10;;;;;;;-146.27;100.00;83209.88;5082907;28;20025;-69
2023/07/05 07:52:04;;;;;;;5.00;2.70;;;;;;;-146.27;100.00;83238.03;5060777;28;20048;-70
2023/07/05 07:54:31;;;;;;;14.68;2.70;;;;;;;-146.27;100.00;83232.00;5051515;28;20550;-69
2023/07/05 07:56:57;;;;;;;15.13;3.15;;;;;;;-146.27;100.00;83284.22;5083885;28;20031;-69
2023/07/05 07:59:23;;;;;;;9.20;3.08;;;;;;;-146.27;100.00;83211.91;5065752;28;21313;-68
2023/07/05 08:01:49;;;;;;;15.93;3.35;;;;;;;-146.27;100.00;83276.19;5062419;28;20036;-68
2023/07/05 08:04:16;;;;;;;16.50;4.10;;;;;;;-146.27;100.00;83256.09;5071591;28;20024;-68
2023/07/05 08:06:42;;;;;;;23.00;4.68;;;;;;;-146.27;100.00;83234.00;5069909;28;20061;-68
2023/07/05 08:09:11;;;;;;;28.10;5.60;;;;;;;-146.27;100.00;83209.88;5062485;28;20032;-70
2023/07/05 08:11:38;;;;;;;19.92;4.28;;;;;;;-146.27;100.00;83223.94;5071019;28;20400;-68
2023/07/05 08:14:05;;;;;;;27.98;4.97;;;;;;;-146.27;100.00;83189.78;5071575;28;20043;-68
2023/07/05 08:16:30;;;;;;;28.52;4.97;;;;;;;-146.27;100.00;83189.78;5070141;28;20028;-68
2023/07/05 08:18:57;;;;;;;23.10;6.93;;;;;;;-146.27;100.00;83227.97;5058637;28;20052;-71
2023/07/05 08:21:22;;;;;;;17.27;4.13;;;;;;;-146.27;100.00;83223.94;5051448;28;20367;-69
2023/07/05 08:23:48;;;;;;;20.10;4.43;;;;;;;-146.27;100.00;83215.91;5059046;28;20025;-69
2023/07/05 08:26:14;;;;;;;25.65;3.97;;;;;;;-146.27;100.00;83276.19;5068329;28;20036;-69
2023/07/05 08:28:42;;;;;;;15.90;3.67;;;;;;;-146.27;100.00;83280.22;5076437;28;20043;-68
2023/07/05 08:31:09;;;;;;;18.17;3.40;;;;;;;-146.27;100.00;83314.38;5069731;28;20036;-69
2023/07/05 08:33:36;;;;;;;20.65;4.18;;;;;;;-146.27;100.00;83328.44;5073460;28;20404;-68
2023/07/05 08:36:04;;;;;;;24.77;3.85;;;;;;;-146.27;100.00;83294.28;5061095;28;20016;-68
2023/07/05 08:38:30;;;;;;;11.82;3.42;;;;;;;-146.27;100.00;83294.28;5068273;28;20032;-68
2023/07/05 08:41:05;;;;;;;20.92;3.88;;;;;;;-146.27;100.00;83320.41;5068439;28;20384;-68
2023/07/05 08:43:38;;;;;;;16.88;3.70;;;;;;;-146.27;100.00;83304.31;5069428;28;20021;-68
2023/07/05 08:46:13;;;;;;;18.15;4.53;;;;;;;-146.27;100.00;83328.44;5061168;28;20039;-68
2023/07/05 08:48:39;;;;;;;8.98;3.08;;;;;;;-146.27;100.00;83362.59;5074756;28;20125;-68
2023/07/05 08:51:07;;;;;;;12.70;3.17;;;;;;;-146.27;100.00;83356.56;5069662;28;20028;-67
2023/07/05 08:53:41;;;;;;;19.45;4.10;;;;;;;-146.27;100.00;83328.44;5070323;28;20494;-68
2023/07/05 08:56:13;;;;;;;14.93;3.72;;;;;;;-146.27;100.00;83328.44;5068503;28;20028;-68
2023/07/05 08:58:42;;;;;;;20.00;4.20;;;;;;;-146.27;100.00;83276.19;5062704;28;20424;-68
2023/07/05 09:01:29;;;;;;;26.67;5.78;;;;;;;-146.27;100.00;83254.09;5062043;28;20499;-69
2023/07/05 09:03:56;;;;;;;18.60;4.43;;;;;;;-146.27;100.00;83234.00;5069744;28;20044;-69
2023/07/05 09:06:38;;;;;;;19.15;5.45;;;;;;;-146.27;100.00;83177.75;5079388;28;20107;-68
2023/07/05 09:09:11;;;;;;;27.60;6.13;;;;;;;-146.27;100.00;83121.47;5064019;28;20028;-67
2023/07/05 09:11:52;;;;;;;23.15;6.88;;;;;;;-146.27;100.00;83063.22;5071086;28;20119;-68
2023/07/05 09:14:27;;;;;;;23.33;5.95;;;;;;;-146.27;100.00;83021.03;5067302;28;20105;-68
2023/07/05 09:17:01;;;;;;;17.45;4.95;;;;;;;-146.27;100.00;82986.88;5057334;28;20029;-69
2023/07/05 09:19:41;;;;;;;21.17;4.45;;;;;;;-146.27;100.00;82992.91;5067441;28;20111;-69
2023/07/05 09:22:11;;;;;;;15.85;4.97;;;;;;;-146.27;100.00;82958.75;5069077;28;20032;-69
2023/07/05 09:24:39;;;;;;;17.48;4.50;;;;;;;-146.27;100.00;82974.81;5069431;28;20039;-69
2023/07/05 09:27:23;;;;;;;20.55;4.93;;;;;;;-146.27;100.00;82942.66;5067032;28;20048;-69
2023/07/05 09:30:07;;;;;;;23.83;5.03;;;;;;;-146.27;100.00;82946.69;5069865;28;20099;-68
2023/07/05 09:32:37;;;;;;;16.67;4.68;;;;;;;-146.27;100.00;82930.63;5069900;28;20056;-66
2023/07/05 09:35:03;;;;;;;15.30;4.57;;;;;;;-146.27;100.00;82836.19;5069988;28;20112;-69
2023/07/05 09:37:32;;;;;;;17.88;4.18;;;;;;;-146.27;100.00;82858.28;5059663;28;20039;-69
2023/07/05 09:40:16;;;;;;;17.27;4.75;;;;;;;-146.27;100.00;82880.41;5088796;28;20543;-69
2023/07/05 09:43:04;;;;;;;16.52;4.18;;;;;;;-146.27;100.00;82806.06;5065575;28;20059;-69
2023/07/05 09:45:30;;;;;;;11.88;3.60;;;;;;;-146.27;100.00;82814.09;5068014;28;20088;-71
2023/07/05 09:48:00;;;;;;;16.77;5.20;;;;;;;-146.27;100.00;82767.88;5082997;28;20487;-69
2023/07/05 09:50:27;;;;;;;19.83;4.80;;;;;;;-146.27;100.00;82781.94;5068008;28;20458;-69
2023/07/05 09:52:59;;;;;;;19.42;3.67;;;;;;;-146.27;100.00;82771.91;5061029;28;20034;-69
2023/07/05 09:55:27;;;;;;;12.95;3.22;;;;;;;-146.27;99.70;82677.47;5062108;28;20036;-71
2023/07/05 09:57:53;;;;;;;13.75;3.92;;;;;;;-146.27;99.38;82689.53;5072189;28;20043;-70
2023/07/05 10:00:22;;;;;;;17.60;3.60;;;;;;;-146.27;98.69;82711.63;5068915;28;20548;-70
2023/07/05 10:02:51;;;;;;;15.43;3.80;;;;;;;-146.27;98.22;82661.41;5076038;28;20484;-70
2023/07/05 10:05:25;;;;;;;14.05;3.67;;;;;;;-146.27;96.34;82667.44;5070350;28;20025;-70
2023/07/05 10:07:55;;;;;;;17.75;3.47;;;;;;;-146.27;97.47;82641.31;5071387;28;20490;-69
2023/07/05 10:10:24;;;;;;;20.08;3.50;;;;;;;-146.27;99.40;82701.59;5064706;28;20125;-69
2023/07/05 10:12:58;;;;;;;14.95;3.25;;;;;;;-146.27;100.00;82701.59;5068661;28;20038;-69
2023/07/05 10:15:24;;;;;;;18.30;3.55;;;;;;;-146.27;100.00;82773.91;5067570;28;20032;-70
2023/07/05 10:17:53;;;;;;;12.65;4.88;;;;;;;-146.27;100.00;82789.97;5069962;28;20093;-70
2023/07/05 10:20:31;;;;;;;15.77;3.88;;;;;;;-146.27;100.00;82745.78;5069440;28;20043;-70
2023/07/05 10:23:01;;;;;;;15.23;3.67;;;;;;;-146.27;100.00;82735.75;5059785;28;20517;-71
2023/07/05 10:25:30;;;;;;;11.25;3.33;;;;;;;-146.27;100.00;82725.69;5069538;28;20388;-70
2023/07/05 10:27:59;;;;;;;17.00;3.50;;;;;;;-146.27;99.39;82761.84;5083754;28;20086;-71
2023/07/05 10:30:26;;;;;;;8.68;3.20;;;;;;;-146.27;98.60;82735.75;5067156;28;20107;-70
2023/07/05 10:33:31;;;;;;;12.48;3.25;;;;;;;-146.27;97.70;82689.53;5076083;28;20031;-69
2023/07/05 10:36:08;;;;;;;16.05;3.30;;;;;;;-146.27;95.84;82623.25;5046587;28;20040;-69
2023/07/05 10:38:50;;;;;;;16.35;3.40;;;;;;;-146.27;95.71;82605.16;5046265;28;20545;-69
2023/07/05 10:41:25;;;;;;;9.15;3.15;;;;;;;-146.27;94.88;82657.41;5059133;28;20032;-69
2023/07/05 10:44:07;;;;;;;17.17;3.35;;;;;;;-146.27;94.46;82627.25;5062181;28;20012;-71
2023/07/05 10:46:36;;;;;;;9.85;2.53;;;;;;;-146.27;92.08;82597.13;5064945;28;20032;-69
2023/07/05 10:49:06;;;;;;;7.45;2.78;;;;;;;-146.27;91.53;82530.84;5072161;28;20036;-69
2023/07/05 10:51:37;;;;;;;9.98;2.83;;;;;;;-146.27;90.52;82478.59;5049504;28;20225;-70
2023/07/05 10:54:29;;;;;;;9.10;2.33;;;;;;;-146.27;88.99;82408.28;5066907;28;20028;-72
2023/07/05 10:57:11;;;;;;;13.43;2.45;;;;;;;-146.27;87.16;82420.34;5063855;28;20060;-71
2023/07/05 10:59:43;;;;;;;9.00;2.50;;;;;;;-146.27;86.31;82406.28;5066858;28;20111;-69
2023/07/05 11:02:14;;;;;;;11.13;2.70;;;;;;;-146.27;85.95;82448.47;5085592;28;20447;-70
2023/07/05 11:04:44;;;;;;;9.85;2.30;;;;;;;-146.27;83.34;82400.25;5071517;28;20361;-70
2023/07/05 11:07:15;;;;;;;21.20;2.33;;;;;;;-146.27;84.18;82348.03;5062295;28;20029;-71
2023/07/05 11:09:41;;;;;;;11.98;2.08;;;;;;;-146.27;84.04;82337.97;5070278;28;20510;-70
2023/07/05 11:12:33;;;;;;;11.75;2.38;;;;;;;-146.27;83.30;82340.00;5072604;28;20052;-70
2023/07/05 11:14:59;;;;;;;14.38;2.50;;;;;;;-146.27;84.34;82301.81;5072036;28;20068;-70